Kickapoo, Texas
Current Conditions -  °F | °C
As of 11:50 AM on Thursday 18 Dec 2014 (Local Time) from KPSN Reporting Station
Haze Haze  
Wind Chill: 50°   Ceiling: 400
Heat Index: 50°   Visibility: 3mi
Dew Point: 49°   Wind: 0mph
Humidity: 97%   Direction: NA
Pressure: 30.15"   Gusts: NA
Location:  32.0056°N, 95.5543°W
Report Text: KPSN 181750Z AUTO 00000KT 3SM BR OVC004 10/09 A3015 RMK AO2 T01010096
Loading
Personal Weather Stations






























Interactive Weather Map New forecast layout! Learn more

10-Day Weather Forecast

Advertisements
Track Severe Weather on mobile